createdAt,value
2023-02-02T00:00:15.381Z,99106.94
2023-02-02T00:03:12.750Z,99106.88
2023-02-02T00:06:19.997Z,99102.38
2023-02-02T00:12:23.968Z,99106.41
2023-02-02T00:14:58.435Z,99105.38
2023-02-02T00:17:54.501Z,99102.81
2023-02-02T00:20:29.608Z,99086.91
2023-02-02T00:23:22.644Z,99106.41
2023-02-02T00:27:04.591Z,99089.56
2023-02-02T00:29:53.724Z,99082.19
2023-02-02T00:32:39.307Z,99080.50
2023-02-02T00:35:26.752Z,99082.47
2023-02-02T00:38:21.829Z,99086.22
2023-02-02T00:41:18.761Z,99089.13
2023-02-02T00:47:15.314Z,99077.25
2023-02-02T00:49:48.256Z,99084.53
2023-02-02T00:52:18.438Z,99060.03
2023-02-02T00:54:56.470Z,99087.06
2023-02-02T00:57:45.533Z,99088.91
2023-02-02T01:00:23.980Z,99088.00
2023-02-02T01:02:57.446Z,99084.63
2023-02-02T01:05:34.907Z,99082.38
2023-02-02T01:08:18.746Z,99083.66
2023-02-02T01:11:13.866Z,99079.59
2023-02-02T01:13:44.612Z,99086.31
2023-02-02T01:16:19.324Z,99089.69
2023-02-02T01:19:09.142Z,99086.91
2023-02-02T01:21:41.799Z,99089.06
2023-02-02T01:24:11.168Z,99093.41
2023-02-02T01:26:49.706Z,99089.50
2023-02-02T01:29:39.536Z,99089.66
2023-02-02T01:32:19.130Z,99084.19
2023-02-02T01:35:56.167Z,99098.00
2023-02-02T01:38:30.385Z,99098.38
2023-02-02T01:41:14.820Z,99096.63
2023-02-02T01:44:02.469Z,99102.97
2023-02-02T01:46:41.741Z,99092.84
2023-02-02T01:49:29.035Z,99089.94
2023-02-02T01:52:16.128Z,99091.66
2023-02-02T01:55:11.732Z,99097.81
2023-02-02T01:57:55.693Z,99093.53
2023-02-02T02:00:47.013Z,99086.72
2023-02-02T02:03:41.084Z,99087.69
2023-02-02T02:07:07.937Z,99083.53
2023-02-02T02:09:59.206Z,99093.81
2023-02-02T02:12:41.366Z,99091.31
2023-02-02T02:16:00.628Z,99095.63
2023-02-02T02:19:20.835Z,99100.72
2023-02-02T02:29:38.387Z,99102.53
2023-02-02T02:33:08.489Z,99109.19
2023-02-02T02:36:00.860Z,99105.78
2023-02-02T02:39:08.683Z,99097.16
2023-02-02T02:41:50.025Z,99099.66
2023-02-02T02:44:39.103Z,99104.19
2023-02-02T02:47:23.820Z,99099.56
2023-02-02T02:50:17.179Z,99095.41
2023-02-02T02:53:41.040Z,99092.72
2023-02-02T02:57:48.708Z,99091.94
2023-02-02T03:01:31.019Z,99098.97
2023-02-02T03:04:55.485Z,99104.69
2023-02-02T03:08:28.619Z,99089.94
2023-02-02T03:11:53.858Z,99092.19
2023-02-02T03:14:59.295Z,99106.81
2023-02-02T03:18:04.811Z,99105.41
2023-02-02T03:20:46.160Z,99097.63
2023-02-02T03:23:15.157Z,99101.16
2023-02-02T03:25:59.835Z,99108.03
2023-02-02T03:28:53.698Z,99104.44
2023-02-02T03:34:35.090Z,99106.13
2023-02-02T03:37:36.273Z,99107.47
2023-02-02T03:40:08.768Z,99110.31
2023-02-02T03:42:41.568Z,99109.38
2023-02-02T03:48:30.432Z,99095.63
2023-02-02T03:51:15.319Z,99098.78
2023-02-02T03:54:11.371Z,99101.53
2023-02-02T03:56:58.666Z,99094.50
2023-02-02T03:59:40.199Z,99089.25
2023-02-02T04:02:54.859Z,99091.66
2023-02-02T04:05:55.152Z,99096.09
2023-02-02T04:08:54.037Z,99094.94
2023-02-02T04:11:59.260Z,99097.19
2023-02-02T04:15:03.594Z,99093.91
2023-02-02T04:17:35.974Z,99093.94
2023-02-02T04:20:28.074Z,99093.13
2023-02-02T04:23:14.444Z,99088.75
2023-02-02T04:26:25.881Z,99088.69
2023-02-02T04:29:01.227Z,99088.88
2023-02-02T04:31:46.927Z,99090.16
2023-02-02T04:34:34.712Z,99086.69
2023-02-02T04:37:33.342Z,99084.19
2023-02-02T04:40:29.813Z,99087.72
2023-02-02T04:43:15.718Z,99092.81
2023-02-02T04:46:03.007Z,99090.91
2023-02-02T04:48:45.952Z,99089.81
2023-02-02T04:51:38.235Z,99095.59
2023-02-02T04:54:23.736Z,99098.13
2023-02-02T04:56:56.494Z,99096.66
2023-02-02T04:59:31.331Z,99102.00
2023-02-02T05:02:13.590Z,99099.47
2023-02-02T05:04:42.577Z,99102.69
2023-02-02T05:07:20.328Z,99096.94
2023-02-02T05:10:05.213Z,99097.78
2023-02-02T05:12:57.197Z,99098.28
2023-02-02T05:16:06.358Z,99103.06
2023-02-02T05:19:03.388Z,99101.16
2023-02-02T05:22:08.696Z,99102.25
2023-02-02T05:25:27.863Z,99103.56
2023-02-02T05:28:48.152Z,99114.13
2023-02-02T05:31:23.533Z,99115.28
2023-02-02T05:34:11.674Z,99110.09
2023-02-02T05:37:23.330Z,99116.50
2023-02-02T05:39:53.867Z,99117.38
2023-02-02T05:42:22.310Z,99114.97
2023-02-02T05:44:54.815Z,99116.78
2023-02-02T05:47:43.475Z,99120.69
2023-02-02T05:50:28.037Z,99118.16
2023-02-02T05:53:45.202Z,99121.50
2023-02-02T05:56:44.005Z,99116.78
2023-02-02T05:59:12.754Z,99118.50
2023-02-02T06:01:46.817Z,99115.06
2023-02-02T06:07:16.431Z,99121.84
2023-02-02T06:09:45.372Z,99123.69
2023-02-02T06:12:13.645Z,99133.13
2023-02-02T06:15:03.695Z,99131.31
2023-02-02T06:17:38.779Z,99133.97
2023-02-02T06:20:34.298Z,99134.72
2023-02-02T06:23:20.249Z,99129.53
2023-02-02T06:26:16.325Z,99134.50
2023-02-02T06:29:04.291Z,99132.91
2023-02-02T06:31:42.881Z,99125.72
2023-02-02T06:34:31.002Z,99122.19
2023-02-02T06:37:03.167Z,99122.16
2023-02-02T06:39:37.493Z,99127.97
2023-02-02T06:42:21.174Z,99116.00
2023-02-02T06:45:18.417Z,99123.50
2023-02-02T06:48:11.178Z,99117.25
2023-02-02T06:50:46.987Z,99114.84
2023-02-02T06:53:27.567Z,99109.75
2023-02-02T06:58:56.821Z,99112.22
2023-02-02T07:01:44.454Z,99127.75
2023-02-02T07:04:28.778Z,99124.34
2023-02-02T07:07:59.528Z,99118.97
2023-02-02T07:11:12.637Z,99118.78
2023-02-02T07:13:25.712Z,99119.72
2023-02-02T07:16:00.324Z,99114.28
2023-02-02T07:18:39.973Z,99114.56
2023-02-02T07:21:27.608Z,99115.38
2023-02-02T07:23:57.221Z,99111.75
2023-02-02T07:26:34.905Z,99119.41
2023-02-02T07:29:07.709Z,99123.72
2023-02-02T07:31:46.201Z,99118.63
2023-02-02T07:34:34.643Z,99113.53
2023-02-02T07:37:13.365Z,99120.25
2023-02-02T07:39:44.813Z,99121.78
2023-02-02T07:42:20.522Z,99114.50
2023-02-02T07:45:00.377Z,99110.13
2023-02-02T07:50:51.607Z,99120.41
2023-02-02T07:53:26.823Z,99108.44
2023-02-02T07:56:21.696Z,99116.94
2023-02-02T07:59:12.344Z,99112.06
2023-02-02T08:02:10.196Z,99123.50
2023-02-02T08:04:48.488Z,99105.34
2023-02-02T08:07:24.994Z,99117.25
2023-02-02T08:10:12.932Z,99127.44
2023-02-02T08:12:50.747Z,99126.34
2023-02-02T08:15:26.767Z,99133.31
2023-02-02T08:18:08.905Z,99131.50
2023-02-02T08:20:39.220Z,99126.84
2023-02-02T08:23:16.585Z,99101.63
2023-02-02T08:26:05.663Z,99125.34
2023-02-02T08:30:53.537Z,99130.03
2023-02-02T08:33:21.490Z,99130.59
2023-02-02T08:35:49.186Z,99123.88
2023-02-02T08:38:17.080Z,99128.91
2023-02-02T08:40:44.793Z,99133.81
2023-02-02T08:43:12.688Z,99132.03
2023-02-02T08:46:07.768Z,99132.03
2023-02-02T08:48:33.605Z,99134.47
2023-02-02T08:51:02.718Z,99137.94
2023-02-02T08:53:31.245Z,99134.81
2023-02-02T08:56:03.988Z,99145.72
2023-02-02T08:58:33.841Z,99137.06
2023-02-02T09:01:21.683Z,99145.53
2023-02-02T09:03:53.620Z,99147.47
2023-02-02T09:06:21.958Z,99146.28
2023-02-02T09:08:50.034Z,99143.44
2023-02-02T09:11:19.414Z,99146.44
2023-02-02T09:13:49.253Z,99147.31
2023-02-02T09:16:18.651Z,99147.16
2023-02-02T09:18:46.632Z,99144.19
2023-02-02T09:21:16.647Z,99143.13
2023-02-02T09:23:46.300Z,99138.44
2023-02-02T09:26:30.200Z,99144.97
2023-02-02T09:29:02.696Z,99140.19
2023-02-02T09:31:34.702Z,99140.13
2023-02-02T09:34:07.801Z,99151.13
2023-02-02T09:36:36.824Z,99149.31
2023-02-02T09:39:06.248Z,99148.63
2023-02-02T09:41:40.582Z,99163.66
2023-02-02T09:44:34.767Z,99164.03
2023-02-02T09:47:08.647Z,99167.84
2023-02-02T09:49:46.511Z,99170.34
2023-02-02T09:52:18.804Z,99167.22
2023-02-02T09:54:52.308Z,99173.16
2023-02-02T09:57:41.840Z,99171.78
2023-02-02T10:00:30.569Z,99178.97
2023-02-02T10:03:02.556Z,99181.81
2023-02-02T10:05:49.069Z,99183.34
2023-02-02T10:08:49.417Z,99187.16
2023-02-02T10:11:44.777Z,99182.41
2023-02-02T10:14:29.119Z,99185.72
2023-02-02T10:17:00.531Z,99195.66
2023-02-02T10:19:30.748Z,99195.88
2023-02-02T10:22:16.522Z,99195.53
2023-02-02T10:24:44.969Z,99199.97
2023-02-02T10:27:16.271Z,99200.69
2023-02-02T10:29:49.174Z,99195.38
2023-02-02T10:32:28.252Z,99205.47
2023-02-02T10:35:17.853Z,99213.44
2023-02-02T10:38:21.236Z,99211.03
2023-02-02T10:41:07.260Z,99217.03
2023-02-02T10:43:48.919Z,99218.13
2023-02-02T10:46:25.150Z,99218.41
2023-02-02T10:49:20.168Z,99227.16
2023-02-02T10:52:26.711Z,99238.38
2023-02-02T10:55:22.506Z,99240.84
2023-02-02T10:58:02.452Z,99235.50
2023-02-02T11:00:46.282Z,99239.97
2023-02-02T11:03:16.316Z,99240.34
2023-02-02T11:06:03.221Z,99248.31
2023-02-02T11:09:01.324Z,99247.34
2023-02-02T11:11:42.222Z,99264.03
2023-02-02T11:14:10.208Z,99266.75
2023-02-02T11:16:43.678Z,99269.44
2023-02-02T11:19:31.960Z,99278.13
2023-02-02T11:22:03.228Z,99277.75
2023-02-02T11:24:36.796Z,99287.31
2023-02-02T11:27:21.779Z,99290.16
2023-02-02T11:29:54.597Z,99284.00
2023-02-02T11:32:30.001Z,99289.28
2023-02-02T11:35:23.288Z,99290.50
2023-02-02T11:37:58.882Z,99297.31
2023-02-02T11:40:28.617Z,99301.41
2023-02-02T11:43:00.077Z,99309.91
2023-02-02T11:45:40.416Z,99308.97
2023-02-02T11:48:20.297Z,99310.03
2023-02-02T11:50:54.103Z,99313.44
2023-02-02T11:53:44.936Z,99317.59
2023-02-02T11:56:25.453Z,99316.28
2023-02-02T11:59:03.936Z,99322.06
2023-02-02T12:01:41.269Z,99326.84
2023-02-02T12:04:27.785Z,99334.28
2023-02-02T12:06:55.604Z,99318.91
2023-02-02T12:09:25.921Z,99330.06
2023-02-02T12:12:27.509Z,99336.38
2023-02-02T12:15:25.071Z,99340.72
2023-02-02T12:18:16.740Z,99336.53
2023-02-02T12:20:57.049Z,99346.13
2023-02-02T12:23:33.368Z,99343.22
2023-02-02T12:26:31.809Z,99351.03
2023-02-02T12:29:33.113Z,99354.88
2023-02-02T12:32:28.058Z,99365.53
2023-02-02T12:35:09.280Z,99367.78
2023-02-02T12:37:49.763Z,99364.38
2023-02-02T12:40:46.517Z,99372.06
2023-02-02T12:43:40.740Z,99377.56
2023-02-02T12:46:20.688Z,99375.75
2023-02-02T12:48:51.899Z,99381.66
2023-02-02T12:51:58.638Z,99388.56
2023-02-02T12:54:52.751Z,99398.97
2023-02-02T12:57:43.108Z,99389.69
2023-02-02T13:00:35.316Z,99390.94
2023-02-02T13:03:05.714Z,99408.84
2023-02-02T13:05:53.478Z,99420.59
2023-02-02T13:08:48.057Z,99429.25
2023-02-02T13:11:49.975Z,99430.16
2023-02-02T13:14:27.612Z,99434.72
2023-02-02T13:17:04.623Z,99452.97
2023-02-02T13:19:37.107Z,99458.09
2023-02-02T13:22:13.156Z,99466.72
2023-02-02T13:24:46.083Z,99464.97
2023-02-02T13:27:19.318Z,99475.31
2023-02-02T13:29:52.395Z,99473.56
2023-02-02T13:32:42.498Z,99486.19
2023-02-02T13:35:34.284Z,99489.41
2023-02-02T13:38:07.010Z,99493.78
2023-02-02T13:40:43.601Z,99494.25
2023-02-02T13:43:29.860Z,99499.22
2023-02-02T13:45:57.415Z,99494.50
2023-02-02T13:48:49.937Z,99524.66
2023-02-02T13:51:23.379Z,99529.66
2023-02-02T13:54:28.944Z,99533.34
2023-02-02T13:57:26.001Z,99539.81
2023-02-02T14:00:12.824Z,99549.44
2023-02-02T14:03:06.077Z,99558.25
2023-02-02T14:05:40.575Z,99556.78
2023-02-02T14:08:21.327Z,99563.56
2023-02-02T14:10:52.411Z,99574.03
2023-02-02T14:14:15.661Z,99572.78
2023-02-02T14:16:49.890Z,99574.50
2023-02-02T14:19:35.784Z,99582.16
2023-02-02T14:22:42.727Z,99593.34
2023-02-02T14:25:42.529Z,99607.94
2023-02-02T14:28:13.327Z,99605.28
2023-02-02T14:30:41.201Z,99613.13
2023-02-02T14:33:21.404Z,99624.44
2023-02-02T14:35:49.062Z,99627.66
2023-02-02T14:38:30.762Z,99626.91
2023-02-02T14:41:43.802Z,99645.69
2023-02-02T14:44:11.833Z,99649.13
2023-02-02T14:46:41.240Z,99662.06
2023-02-02T14:49:14.532Z,99654.63
2023-02-02T14:51:52.170Z,99661.53
2023-02-02T14:54:42.279Z,99660.66
2023-02-02T14:57:27.189Z,99669.19
2023-02-02T14:59:59.979Z,99673.78
2023-02-02T15:02:37.902Z,99685.84
2023-02-02T15:05:34.123Z,99696.97
2023-02-02T15:08:26.086Z,99710.88
2023-02-02T15:11:22.889Z,99721.06
2023-02-02T15:14:02.318Z,99729.22
2023-02-02T15:16:31.903Z,99741.25
2023-02-02T15:19:08.426Z,99737.22
2023-02-02T15:21:40.604Z,99742.66
2023-02-02T15:24:22.983Z,99755.03
2023-02-02T15:26:54.575Z,99757.16
2023-02-02T15:29:48.156Z,99765.19
2023-02-02T15:32:20.412Z,99776.44
2023-02-02T15:34:55.293Z,99780.84
2023-02-02T15:37:39.973Z,99784.34
2023-02-02T15:40:20.605Z,99793.22
2023-02-02T15:42:54.954Z,99811.25
2023-02-02T15:45:30.791Z,99800.94
2023-02-02T15:48:00.133Z,99808.66
2023-02-02T15:50:27.972Z,99821.47
2023-02-02T15:52:56.946Z,99819.84
2023-02-02T15:55:29.748Z,99834.34
2023-02-02T15:57:58.101Z,99838.69
2023-02-02T16:00:36.297Z,99838.66
2023-02-02T16:03:11.748Z,99861.19
2023-02-02T16:05:50.393Z,99863.91
2023-02-02T16:08:36.271Z,99876.16
2023-02-02T16:11:09.234Z,99888.38
2023-02-02T16:13:38.465Z,99897.84
2023-02-02T16:16:21.748Z,99898.72
2023-02-02T16:19:16.822Z,99912.50
2023-02-02T16:22:01.864Z,99910.81
2023-02-02T16:24:37.103Z,99914.22
2023-02-02T16:27:07.751Z,99923.69
2023-02-02T16:29:36.323Z,99928.06
2023-02-02T16:32:04.854Z,99933.25
2023-02-02T16:34:42.028Z,99935.72
2023-02-02T16:37:16.967Z,99940.91
2023-02-02T16:39:45.705Z,99946.06
2023-02-02T16:42:31.618Z,99955.59
2023-02-02T16:45:00.711Z,99962.41
2023-02-02T16:47:29.303Z,99969.28
2023-02-02T16:50:09.434Z,99973.56
2023-02-02T16:52:52.889Z,99977.78
2023-02-02T16:55:22.621Z,99985.53
2023-02-02T16:57:51.656Z,99992.41
2023-02-02T17:00:25.650Z,99994.16
2023-02-02T17:02:58.458Z,100003.59
2023-02-02T17:05:29.283Z,100010.47
2023-02-02T17:08:05.408Z,100015.66
2023-02-02T17:10:38.635Z,100023.41
2023-02-02T17:13:31.255Z,100025.97
2023-02-02T17:16:00.547Z,100031.13
2023-02-02T17:18:28.344Z,100031.16
2023-02-02T17:20:58.189Z,100030.25
2023-02-02T17:23:28.192Z,100033.75
2023-02-02T17:25:56.573Z,100032.94
2023-02-02T17:28:26.053Z,100053.63
2023-02-02T17:31:00.852Z,100064.75
2023-02-02T17:33:28.812Z,100071.69
2023-02-02T17:35:56.874Z,100074.28
2023-02-02T17:38:27.683Z,100077.72
2023-02-02T17:41:01.113Z,100088.91
2023-02-02T17:43:30.956Z,100088.03
2023-02-02T17:45:58.992Z,100099.22
2023-02-02T17:48:26.726Z,100096.63
2023-02-02T17:50:54.585Z,100105.22
2023-02-02T17:53:22.846Z,100105.22
2023-02-02T17:55:52.063Z,100115.50
2023-02-02T17:58:19.933Z,100123.22
2023-02-02T18:00:52.104Z,100124.94
2023-02-02T18:03:24.641Z,100123.22
2023-02-02T18:05:52.741Z,100134.38
2023-02-02T18:08:20.572Z,100146.44
2023-02-02T18:10:48.441Z,100138.69
2023-02-02T18:13:19.377Z,100141.25
2023-02-02T18:15:48.687Z,100153.28
2023-02-02T18:18:16.608Z,100158.44
2023-02-02T18:20:46.532Z,100167.06
2023-02-02T18:23:14.858Z,100175.59
2023-02-02T18:25:42.850Z,100175.59
2023-02-02T18:28:11.068Z,100181.59
2023-02-02T18:30:40.338Z,100188.50
2023-02-02T18:33:09.457Z,100192.78
2023-02-02T18:35:41.331Z,100194.50
2023-02-02T18:38:09.546Z,100207.44
2023-02-02T18:40:38.030Z,100207.44
2023-02-02T18:43:06.126Z,100192.81
2023-02-02T18:45:34.159Z,100206.63
2023-02-02T18:48:01.932Z,100211.75
2023-02-02T18:50:29.844Z,100221.22
2023-02-02T18:52:57.523Z,100216.91
2023-02-02T18:55:26.379Z,100210.94
2023-02-02T18:57:54.297Z,100223.00
2023-02-02T19:00:22.511Z,100227.28
2023-02-02T19:02:50.273Z,100237.56
2023-02-02T19:05:36.819Z,100238.47
2023-02-02T19:08:05.876Z,100243.59
2023-02-02T19:10:33.875Z,100246.19
2023-02-02T19:13:21.696Z,100255.66
2023-02-02T19:15:50.829Z,100260.78
2023-02-02T19:18:24.069Z,100263.38
2023-02-02T19:20:52.985Z,100274.56
2023-02-02T19:23:25.982Z,100271.13
2023-02-02T19:25:56.046Z,100280.59
2023-02-02T19:28:25.960Z,100287.47
2023-02-02T19:31:00.393Z,100292.66
2023-02-02T19:33:49.488Z,100302.97
2023-02-02T19:36:27.532Z,100313.31
2023-02-02T19:39:30.729Z,100327.09
2023-02-02T19:42:00.748Z,100327.13
2023-02-02T19:44:34.158Z,100334.00
2023-02-02T19:47:03.044Z,100331.38
2023-02-02T19:49:36.603Z,100339.16
2023-02-02T19:52:05.781Z,100349.47
2023-02-02T19:54:38.233Z,100349.44
2023-02-02T19:57:21.354Z,100352.00
2023-02-02T19:59:52.609Z,100362.28
2023-02-02T20:02:50.149Z,100369.13
2023-02-02T20:05:29.751Z,100383.66
2023-02-02T20:08:05.909Z,100380.16
2023-02-02T20:10:39.647Z,100389.56
2023-02-02T20:13:29.453Z,100393.84
2023-02-02T20:16:03.724Z,100393.78
2023-02-02T20:18:45.301Z,100404.09
2023-02-02T20:21:42.968Z,100410.94
2023-02-02T20:24:28.631Z,100419.63
2023-02-02T20:27:00.608Z,100425.69
2023-02-02T20:29:40.183Z,100441.09
2023-02-02T20:32:19.633Z,100440.19
2023-02-02T20:34:48.931Z,100446.19
2023-02-02T20:37:29.530Z,100448.00
2023-02-02T20:40:01.194Z,100459.13
2023-02-02T20:42:29.806Z,100462.47
2023-02-02T20:44:58.242Z,100465.94
2023-02-02T20:47:26.164Z,100463.25
2023-02-02T20:49:54.130Z,100471.72
2023-02-02T20:52:23.463Z,100477.72
2023-02-02T20:54:52.417Z,100483.72
2023-02-02T20:57:20.076Z,100495.03
2023-02-02T20:59:48.063Z,100500.97
2023-02-02T21:02:20.528Z,100497.63
2023-02-02T21:04:49.255Z,100494.22
2023-02-02T21:07:19.627Z,100495.16
2023-02-02T21:09:50.354Z,100495.13
2023-02-02T21:12:18.543Z,100505.34
2023-02-02T21:14:47.025Z,100506.13
2023-02-02T21:17:16.044Z,100514.72
2023-02-02T21:19:44.700Z,100505.13
2023-02-02T21:22:13.133Z,100512.75
2023-02-02T21:24:41.694Z,100516.09
2023-02-02T21:27:10.708Z,100512.63
2023-02-02T21:29:38.730Z,100525.56
2023-02-02T21:32:06.649Z,100529.72
2023-02-02T21:34:36.957Z,100528.75
2023-02-02T21:37:10.687Z,100537.31
2023-02-02T21:39:38.611Z,100536.31
2023-02-02T21:42:09.129Z,100555.28
2023-02-02T21:44:44.027Z,100552.75
2023-02-02T21:47:26.794Z,100559.47
2023-02-02T21:50:02.658Z,100562.84
2023-02-02T21:52:33.278Z,100560.91
2023-02-02T21:55:16.790Z,100573.75
2023-02-02T21:57:44.522Z,100578.81
2023-02-02T22:00:26.764Z,100579.66
2023-02-02T22:02:54.565Z,100580.38
2023-02-02T22:05:35.384Z,100584.09
2023-02-02T22:08:19.392Z,100588.16
2023-02-02T22:10:47.796Z,100593.41
2023-02-02T22:13:21.209Z,100594.97
2023-02-02T22:15:51.812Z,100599.19
2023-02-02T22:18:23.031Z,100607.66
2023-02-02T22:20:52.836Z,100610.38
2023-02-02T22:23:23.157Z,100604.56
2023-02-02T22:25:56.622Z,100606.84
2023-02-02T22:28:37.343Z,100605.03
2023-02-02T22:31:05.663Z,100614.47
2023-02-02T22:33:33.305Z,100620.50
2023-02-02T22:36:01.235Z,100625.59
2023-02-02T22:38:28.894Z,100634.41
2023-02-02T22:40:56.901Z,100637.66
2023-02-02T22:43:24.571Z,100641.81
2023-02-02T22:45:52.451Z,100643.75
2023-02-02T22:48:20.043Z,100647.28
2023-02-02T22:50:48.126Z,100641.34
2023-02-02T22:53:15.781Z,100641.47
2023-02-02T22:55:43.748Z,100649.28
2023-02-02T22:58:11.444Z,100648.66
2023-02-02T23:00:39.798Z,100658.03
2023-02-02T23:03:07.540Z,100657.19
2023-02-02T23:05:35.632Z,100661.47
2023-02-02T23:08:03.363Z,100665.88
2023-02-02T23:10:35.390Z,100664.16
2023-02-02T23:13:04.610Z,100676.31
2023-02-02T23:15:33.471Z,100689.13
2023-02-02T23:18:01.818Z,100689.09
2023-02-02T23:20:29.864Z,100695.88
2023-02-02T23:22:57.481Z,100696.59
2023-02-02T23:25:25.500Z,100694.03
2023-02-02T23:27:53.146Z,100708.44
2023-02-02T23:30:24.231Z,100708.34
2023-02-02T23:32:53.060Z,100716.84
2023-02-02T23:35:39.430Z,100718.44
2023-02-02T23:38:07.312Z,100717.00
2023-02-02T23:40:35.020Z,100719.75
2023-02-02T23:43:02.984Z,100712.09
2023-02-02T23:45:30.777Z,100711.19
2023-02-02T23:47:58.739Z,100717.09
2023-02-02T23:50:27.089Z,100713.63
2023-02-02T23:52:55.344Z,100717.75
2023-02-02T23:55:23.087Z,100718.56
2023-02-02T23:57:51.178Z,100723.63
